createdAt,value
2018-09-08T00:01:54.616Z,11.37
2018-09-08T00:04:22.937Z,11.40
2018-09-08T00:06:56.513Z,11.40
2018-09-08T00:09:24.869Z,11.43
2018-09-08T00:11:53.173Z,11.43
2018-09-08T00:14:21.600Z,11.42
2018-09-08T00:16:55.283Z,11.44
2018-09-08T00:19:28.724Z,11.45
2018-09-08T00:22:02.428Z,11.44
2018-09-08T00:24:35.956Z,11.44
2018-09-08T00:27:03.475Z,11.48
2018-09-08T00:29:39.232Z,11.52
2018-09-08T00:32:10.492Z,11.53
2018-09-08T00:34:39.109Z,11.52
2018-09-08T00:37:07.703Z,11.52
2018-09-08T00:39:35.993Z,11.53
2018-09-08T00:42:04.333Z,11.54
2018-09-08T00:44:32.679Z,11.52
2018-09-08T00:47:01.006Z,11.55
2018-09-08T00:49:29.297Z,11.66
2018-09-08T00:51:57.599Z,11.75
2018-09-08T00:54:25.909Z,11.80
2018-09-08T00:56:54.204Z,11.87
2018-09-08T00:59:22.525Z,11.98
2018-09-08T01:01:50.833Z,12.09
2018-09-08T01:04:19.353Z,12.20
2018-09-08T01:06:47.659Z,12.33
2018-09-08T01:09:15.971Z,12.46
2018-09-08T01:11:44.541Z,12.57
2018-09-08T01:14:12.877Z,12.63
2018-09-08T01:16:41.172Z,12.69
2018-09-08T01:19:09.448Z,12.74
2018-09-08T01:21:37.768Z,12.81
2018-09-08T01:24:06.089Z,12.87
2018-09-08T01:26:34.373Z,12.92
2018-09-08T01:29:02.675Z,12.95
2018-09-08T01:31:31.034Z,12.97
2018-09-08T01:33:59.356Z,13.02
2018-09-08T01:36:27.684Z,13.04
2018-09-08T01:38:56.198Z,13.07
2018-09-08T01:41:24.519Z,13.09
2018-09-08T01:43:52.924Z,13.08
2018-09-08T01:46:21.207Z,13.05
2018-09-08T01:48:49.513Z,13.04
2018-09-08T01:51:17.848Z,13.00
2018-09-08T01:53:46.153Z,12.97
2018-09-08T01:56:14.533Z,12.93
2018-09-08T01:58:42.872Z,12.90
2018-09-08T02:01:11.189Z,12.89
2018-09-08T02:03:39.479Z,12.90
2018-09-08T02:06:07.920Z,12.91
2018-09-08T02:08:36.231Z,12.94
2018-09-08T02:11:04.558Z,12.97
2018-09-08T02:13:32.841Z,12.98
2018-09-08T02:16:01.140Z,13.00
2018-09-08T02:18:29.462Z,13.03
2018-09-08T02:20:57.780Z,13.06
2018-09-08T02:23:26.113Z,13.06
2018-09-08T02:25:54.448Z,13.05
2018-09-08T02:28:22.757Z,13.04
2018-09-08T02:30:51.035Z,12.98
2018-09-08T02:33:19.494Z,12.93
2018-09-08T02:35:47.806Z,12.90
2018-09-08T02:38:16.089Z,12.87
2018-09-08T02:40:44.428Z,12.83
2018-09-08T02:43:12.787Z,12.80
2018-09-08T02:45:41.132Z,12.77
2018-09-08T02:48:09.416Z,12.72
2018-09-08T02:50:38.527Z,12.67
2018-09-08T02:53:06.757Z,12.65
2018-09-08T02:55:34.441Z,12.62
2018-09-08T02:58:01.893Z,12.63
2018-09-08T03:00:29.421Z,12.61
2018-09-08T03:02:56.628Z,12.59
2018-09-08T03:05:24.027Z,12.56
2018-09-08T03:07:51.313Z,12.52
2018-09-08T03:10:19.166Z,12.50
2018-09-08T03:12:46.368Z,12.48
2018-09-08T03:15:13.556Z,12.47
2018-09-08T03:17:40.765Z,12.47
2018-09-08T03:20:07.957Z,12.47
2018-09-08T03:22:35.153Z,12.48
2018-09-08T03:25:02.389Z,12.47
2018-09-08T03:27:29.562Z,12.47
2018-09-08T03:29:56.850Z,12.47
2018-09-08T03:32:24.069Z,12.47
2018-09-08T03:34:51.253Z,12.48
2018-09-08T03:37:18.437Z,12.49
2018-09-08T03:39:45.645Z,12.48
2018-09-08T03:42:12.830Z,12.49
2018-09-08T03:44:39.994Z,12.49
2018-09-08T03:47:07.232Z,12.48
2018-09-08T03:49:34.409Z,12.46
2018-09-08T03:52:01.597Z,12.48
2018-09-08T03:54:28.786Z,12.48
2018-09-08T03:56:55.937Z,12.48
2018-09-08T03:59:23.150Z,12.49
2018-09-08T04:01:50.370Z,12.47
2018-09-08T04:04:18.711Z,12.46
2018-09-08T04:06:47.001Z,12.46
2018-09-08T04:09:15.319Z,12.46
2018-09-08T04:11:43.695Z,12.46
2018-09-08T04:14:11.992Z,12.42
2018-09-08T04:16:40.345Z,12.42
2018-09-08T04:19:08.735Z,12.42
2018-09-08T04:21:37.113Z,12.41
2018-09-08T04:24:05.637Z,12.40
2018-09-08T04:26:33.893Z,12.38
2018-09-08T04:29:02.223Z,12.35
2018-09-08T04:31:30.541Z,12.37
2018-09-08T04:33:58.864Z,12.34
2018-09-08T04:36:27.154Z,12.35
2018-09-08T04:38:55.509Z,12.35
2018-09-08T04:41:23.830Z,12.31
2018-09-08T04:43:52.577Z,12.31
2018-09-08T04:46:20.918Z,12.31
2018-09-08T04:48:49.285Z,12.33
2018-09-08T04:51:17.602Z,12.34
2018-09-08T04:53:45.890Z,12.37
2018-09-08T04:56:14.174Z,12.37
2018-09-08T04:58:42.471Z,12.36
2018-09-08T05:01:10.848Z,12.33
2018-09-08T05:03:39.144Z,12.33
2018-09-08T05:06:07.569Z,12.34
2018-09-08T05:08:35.894Z,12.36
2018-09-08T05:11:04.208Z,12.37
2018-09-08T05:13:32.512Z,12.40
2018-09-08T05:16:00.824Z,12.42
2018-09-08T05:18:29.160Z,12.47
2018-09-08T05:20:57.468Z,12.50
2018-09-08T05:23:25.851Z,12.50
2018-09-08T05:25:54.180Z,12.51
2018-09-08T05:28:22.541Z,12.53
2018-09-08T05:30:50.849Z,12.56
2018-09-08T05:33:19.320Z,12.58
2018-09-08T05:35:47.579Z,12.61
2018-09-08T05:38:15.913Z,12.66
2018-09-08T05:40:44.309Z,12.69
2018-09-08T05:43:12.644Z,12.75
2018-09-08T05:45:40.970Z,12.81
2018-09-08T05:48:09.297Z,12.88
2018-09-08T05:50:37.618Z,12.94
2018-09-08T05:53:06.090Z,13.00
2018-09-08T05:55:34.421Z,13.07
2018-09-08T05:58:02.772Z,13.14
2018-09-08T06:00:31.063Z,13.21
2018-09-08T06:02:59.391Z,13.28
2018-09-08T06:05:27.691Z,13.33
2018-09-08T06:07:56.076Z,13.39
2018-09-08T06:10:24.489Z,13.47
2018-09-08T06:12:52.915Z,13.54
2018-09-08T06:15:21.273Z,13.63
2018-09-08T06:17:49.588Z,13.69
2018-09-08T06:20:17.922Z,13.73
2018-09-08T06:22:46.257Z,13.74
2018-09-08T06:25:14.606Z,13.80
2018-09-08T06:27:42.951Z,13.86
2018-09-08T06:30:11.324Z,13.93
2018-09-08T06:32:39.642Z,13.97
2018-09-08T06:35:08.014Z,13.99
2018-09-08T06:37:36.328Z,14.03
2018-09-08T06:40:04.705Z,14.09
2018-09-08T06:42:32.990Z,14.15
2018-09-08T06:45:01.538Z,14.17
2018-09-08T06:47:29.743Z,14.20
2018-09-08T06:49:58.070Z,14.26
2018-09-08T06:52:26.373Z,14.33
2018-09-08T06:54:54.700Z,14.35
2018-09-08T06:57:23.032Z,14.38
2018-09-08T06:59:51.358Z,14.45
2018-09-08T07:02:19.656Z,14.48
2018-09-08T07:04:48.036Z,14.50
2018-09-08T07:07:16.382Z,14.55
2018-09-08T07:09:44.932Z,14.65
2018-09-08T07:12:13.267Z,14.70
2018-09-08T07:14:41.561Z,14.71
2018-09-08T07:17:09.848Z,14.75
2018-09-08T07:19:38.477Z,14.82
2018-09-08T07:22:07.272Z,14.86
2018-09-08T07:24:35.552Z,14.92
2018-09-08T07:27:03.826Z,14.95
2018-09-08T07:29:32.132Z,14.95
2018-09-08T07:32:00.501Z,14.95
2018-09-08T07:34:28.793Z,14.99
2018-09-08T07:36:57.151Z,15.08
2018-09-08T07:39:25.545Z,15.16
2018-09-08T07:41:53.789Z,15.22
2018-09-08T07:44:22.411Z,15.27
2018-09-08T07:46:50.682Z,15.26
2018-09-08T07:49:19.037Z,15.25
2018-09-08T07:51:47.386Z,15.30
2018-09-08T07:54:15.717Z,15.34
2018-09-08T07:56:44.009Z,15.33
2018-09-08T07:59:12.395Z,15.41
2018-09-08T08:01:40.652Z,15.46
2018-09-08T08:04:08.977Z,15.52
2018-09-08T08:06:37.445Z,15.62
2018-09-08T08:09:07.325Z,15.72
2018-09-08T08:11:35.613Z,15.81
2018-09-08T08:14:03.984Z,15.90
2018-09-08T08:16:32.342Z,15.98
2018-09-08T08:19:00.572Z,16.01
2018-09-08T08:21:28.877Z,16.07
2018-09-08T08:23:57.256Z,16.18
2018-09-08T08:26:25.592Z,16.24
2018-09-08T08:28:53.947Z,16.36
2018-09-08T08:31:22.296Z,16.44
2018-09-08T08:33:50.621Z,16.49
2018-09-08T08:36:18.915Z,16.54
2018-09-08T08:38:47.494Z,16.56
2018-09-08T08:41:15.801Z,16.53
2018-09-08T08:43:44.097Z,16.60
2018-09-08T08:46:12.450Z,16.68
2018-09-08T08:48:40.752Z,16.81
2018-09-08T08:51:20.605Z,16.93
2018-09-08T08:54:00.309Z,16.98
2018-09-08T08:56:28.900Z,16.97
2018-09-08T08:58:57.197Z,17.05
2018-09-08T09:01:26.521Z,17.09
2018-09-08T09:03:54.861Z,17.10
2018-09-08T09:06:23.177Z,17.14
2018-09-08T09:08:51.927Z,17.13
2018-09-08T09:11:20.179Z,17.10
2018-09-08T09:13:48.556Z,17.09
2018-09-08T09:16:16.861Z,17.14
2018-09-08T09:18:57.092Z,17.16
2018-09-08T09:21:36.227Z,17.17
2018-09-08T09:24:25.835Z,17.28
2018-09-08T09:26:53.762Z,17.42
2018-09-08T09:29:22.313Z,17.58
2018-09-08T09:31:50.705Z,17.82
2018-09-08T09:34:18.969Z,17.97
2018-09-08T09:36:47.275Z,18.11
2018-09-08T09:39:15.701Z,18.22
2018-09-08T09:41:44.244Z,18.27
2018-09-08T09:44:12.831Z,18.32
2018-09-08T09:46:41.509Z,18.36
2018-09-08T09:49:09.776Z,18.39
2018-09-08T09:51:38.169Z,18.53
2018-09-08T09:54:06.506Z,18.65
2018-09-08T09:56:34.805Z,18.70
2018-09-08T09:59:09.629Z,18.74
2018-09-08T10:01:48.000Z,18.72
2018-09-08T10:04:16.636Z,18.78
2018-09-08T10:06:45.255Z,18.87
2018-09-08T10:09:13.545Z,18.92
2018-09-08T10:11:41.824Z,18.92
2018-09-08T10:14:10.128Z,18.90
2018-09-08T10:16:38.467Z,18.80
2018-09-08T10:19:06.764Z,18.78
2018-09-08T10:21:35.094Z,18.95
2018-09-08T10:24:05.148Z,19.18
2018-09-08T10:26:31.794Z,19.39
2018-09-08T10:29:00.165Z,19.43
2018-09-08T10:31:28.491Z,19.49
2018-09-08T10:33:56.839Z,19.51
2018-09-08T10:36:25.463Z,19.43
2018-09-08T10:38:53.736Z,19.32
2018-09-08T10:41:22.830Z,19.35
2018-09-08T10:43:51.173Z,19.35
2018-09-08T10:46:19.552Z,19.38
2018-09-08T10:48:47.879Z,19.37
2018-09-08T10:52:45.684Z,19.44
2018-09-08T10:55:13.993Z,19.43
2018-09-08T10:57:42.316Z,19.40
2018-09-08T11:00:11.518Z,19.46
2018-09-08T11:02:40.425Z,19.37
2018-09-08T11:05:08.496Z,19.21
2018-09-08T11:07:36.798Z,19.06
2018-09-08T11:10:05.761Z,18.94
2018-09-08T11:12:34.168Z,18.87
2018-09-08T11:15:02.456Z,18.86
2018-09-08T11:17:30.757Z,18.80
2018-09-08T11:19:59.062Z,18.74
2018-09-08T11:22:27.388Z,18.67
2018-09-08T11:24:55.741Z,18.62
2018-09-08T11:27:24.096Z,18.56
2018-09-08T11:29:52.548Z,18.53
2018-09-08T11:32:21.053Z,18.46
2018-09-08T11:34:49.365Z,18.51
2018-09-08T11:37:17.720Z,18.60
2018-09-08T11:39:46.081Z,18.67
2018-09-08T11:42:14.360Z,18.72
2018-09-08T11:44:42.854Z,18.81
2018-09-08T11:47:11.197Z,18.85
2018-09-08T11:49:39.647Z,18.87
2018-09-08T11:52:07.837Z,18.87
2018-09-08T11:54:36.157Z,18.83
2018-09-08T11:57:04.439Z,18.76
2018-09-08T11:59:32.865Z,18.72
2018-09-08T12:02:01.169Z,18.70
2018-09-08T12:04:29.461Z,18.72
2018-09-08T12:06:57.758Z,18.79
2018-09-08T12:09:26.075Z,18.90
2018-09-08T12:11:54.390Z,18.92
2018-09-08T12:14:22.706Z,18.90
2018-09-08T12:16:51.137Z,19.00
2018-09-08T12:19:19.442Z,19.20
2018-09-08T12:21:47.732Z,19.35
2018-09-08T12:24:16.029Z,19.42
2018-09-08T12:26:44.364Z,19.51
2018-09-08T12:29:12.648Z,19.54
2018-09-08T12:31:40.936Z,19.63
2018-09-08T12:34:09.234Z,19.66
2018-09-08T12:36:37.520Z,19.67
2018-09-08T12:39:07.907Z,19.65
2018-09-08T12:41:36.226Z,19.71
2018-09-08T12:44:04.552Z,19.73
2018-09-08T12:46:32.857Z,19.73
2018-09-08T12:49:01.221Z,19.69
2018-09-08T12:51:29.569Z,19.70
2018-09-08T12:53:57.841Z,19.75
2018-09-08T12:56:26.213Z,19.73
2018-09-08T12:58:54.595Z,19.63
2018-09-08T13:01:22.842Z,19.48
2018-09-08T13:03:51.106Z,19.31
2018-09-08T13:06:19.448Z,19.32
2018-09-08T13:08:47.780Z,19.38
2018-09-08T13:11:16.101Z,19.43
2018-09-08T13:13:44.447Z,19.48
2018-09-08T13:16:12.777Z,19.51
2018-09-08T13:18:41.100Z,19.53
2018-09-08T13:21:15.739Z,19.56
2018-09-08T13:23:44.036Z,19.65
2018-09-08T13:26:12.340Z,19.80
2018-09-08T13:28:40.640Z,20.01
2018-09-08T13:31:09.000Z,20.20
2018-09-08T13:33:37.397Z,20.44
2018-09-08T13:36:05.737Z,20.63
2018-09-08T13:38:34.066Z,20.74
2018-09-08T13:41:02.396Z,20.79
2018-09-08T13:43:30.747Z,20.72
2018-09-08T13:45:59.074Z,20.74
2018-09-08T13:48:27.381Z,20.76
2018-09-08T13:50:55.696Z,20.75
2018-09-08T13:53:24.021Z,20.62
2018-09-08T13:55:52.989Z,20.50
2018-09-08T13:58:21.299Z,20.41
2018-09-08T14:00:49.590Z,20.43
2018-09-08T14:03:17.932Z,20.51
2018-09-08T14:05:46.232Z,20.55
2018-09-08T14:08:15.870Z,20.56
2018-09-08T14:10:44.979Z,20.59
2018-09-08T14:13:13.398Z,20.58
2018-09-08T14:15:41.871Z,20.48
2018-09-08T14:18:10.191Z,20.30
2018-09-08T14:20:38.599Z,20.15
2018-09-08T14:23:06.915Z,20.08
2018-09-08T14:25:35.240Z,20.07
2018-09-08T14:28:03.514Z,20.07
2018-09-08T14:30:31.867Z,20.20
2018-09-08T14:33:00.291Z,20.38
2018-09-08T14:35:28.625Z,20.49
2018-09-08T14:37:57.549Z,20.42
2018-09-08T14:40:25.969Z,20.39
2018-09-08T14:42:54.307Z,20.40
2018-09-08T14:45:22.729Z,20.44
2018-09-08T14:47:51.218Z,20.42
2018-09-08T14:50:19.519Z,20.48
2018-09-08T14:52:47.834Z,20.56
2018-09-08T14:55:16.150Z,20.64
2018-09-08T14:57:44.474Z,20.71
2018-09-08T15:00:12.804Z,20.72
2018-09-08T15:02:41.116Z,20.71
2018-09-08T15:05:09.412Z,20.64
2018-09-08T15:07:37.784Z,20.57
2018-09-08T15:10:06.445Z,20.56
2018-09-08T15:12:34.765Z,20.53
2018-09-08T15:15:03.085Z,20.52
2018-09-08T15:17:32.247Z,20.47
2018-09-08T15:20:00.556Z,20.36
2018-09-08T15:22:28.865Z,20.23
2018-09-08T15:24:57.456Z,20.14
2018-09-08T15:27:25.769Z,20.07
2018-09-08T15:29:54.189Z,20.00
2018-09-08T15:32:22.513Z,19.99
2018-09-08T15:34:50.852Z,19.91
2018-09-08T15:37:19.134Z,19.84
2018-09-08T15:39:47.456Z,19.77
2018-09-08T15:42:15.776Z,19.70
2018-09-08T15:44:44.113Z,19.67
2018-09-08T15:47:12.420Z,19.62
2018-09-08T15:49:40.724Z,19.56
2018-09-08T15:52:09.088Z,19.51
2018-09-08T15:54:37.342Z,19.45
2018-09-08T15:57:05.751Z,19.40
2018-09-08T15:59:34.185Z,19.35
2018-09-08T16:02:02.493Z,19.36
2018-09-08T16:04:30.917Z,19.37
2018-09-08T16:06:59.132Z,19.31
2018-09-08T16:09:27.398Z,19.26
2018-09-08T16:11:55.705Z,19.23
2018-09-08T16:14:24.034Z,19.13
2018-09-08T16:16:52.369Z,19.02
2018-09-08T16:19:20.652Z,19.00
2018-09-08T16:21:48.954Z,18.98
2018-09-08T16:24:17.317Z,18.98
2018-09-08T16:26:45.627Z,19.00
2018-09-08T16:29:13.992Z,19.03
2018-09-08T16:31:42.353Z,19.01
2018-09-08T16:34:10.753Z,19.02
2018-09-08T16:36:39.094Z,18.98
2018-09-08T16:39:09.285Z,18.92
2018-09-08T16:41:37.578Z,18.88
2018-09-08T16:44:06.379Z,18.85
2018-09-08T16:46:34.664Z,18.84
2018-09-08T16:49:03.037Z,18.80
2018-09-08T16:51:31.357Z,18.76
2018-09-08T16:53:59.811Z,18.73
2018-09-08T16:56:28.968Z,18.71
2018-09-08T16:58:57.291Z,18.65
2018-09-08T17:01:25.597Z,18.60
2018-09-08T17:03:53.927Z,18.56
2018-09-08T17:06:22.234Z,18.52
2018-09-08T17:08:50.574Z,18.47
2018-09-08T17:11:18.854Z,18.43
2018-09-08T17:13:47.185Z,18.40
2018-09-08T17:16:15.780Z,18.38
2018-09-08T17:18:44.049Z,18.35
2018-09-08T17:21:12.337Z,18.32
2018-09-08T17:23:40.634Z,18.29
2018-09-08T17:26:08.954Z,18.26
2018-09-08T17:28:37.462Z,18.22
2018-09-08T17:31:06.096Z,18.18
2018-09-08T17:33:34.401Z,18.14
2018-09-08T17:36:02.716Z,18.11
2018-09-08T17:38:31.016Z,18.08
2018-09-08T17:40:59.293Z,18.06
2018-09-08T17:43:27.644Z,18.03
2018-09-08T17:45:55.950Z,18.01
2018-09-08T17:48:24.321Z,17.96
2018-09-08T17:50:52.664Z,17.92
2018-09-08T17:53:20.985Z,17.87
2018-09-08T17:55:49.241Z,17.81
2018-09-08T17:58:17.594Z,17.78
2018-09-08T18:00:45.891Z,17.75
2018-09-08T18:03:14.242Z,17.73
2018-09-08T18:05:42.600Z,17.70
2018-09-08T18:08:10.919Z,17.66
2018-09-08T18:10:39.250Z,17.61
2018-09-08T18:13:07.525Z,17.55
2018-09-08T18:15:42.519Z,17.54
2018-09-08T18:18:10.864Z,17.52
2018-09-08T18:20:39.243Z,17.48
2018-09-08T18:23:07.549Z,17.43
2018-09-08T18:25:35.850Z,17.38
2018-09-08T18:28:04.149Z,17.36
2018-09-08T18:30:32.456Z,17.36
2018-09-08T18:33:00.768Z,17.36
2018-09-08T18:35:29.095Z,17.37
2018-09-08T18:37:57.484Z,17.37
2018-09-08T18:40:25.814Z,17.38
2018-09-08T18:42:54.102Z,17.38
2018-09-08T18:45:22.460Z,17.37
2018-09-08T18:47:50.826Z,17.34
2018-09-08T18:50:19.162Z,17.33
2018-09-08T18:52:47.451Z,17.32
2018-09-08T18:55:15.781Z,17.30
2018-09-08T18:57:44.076Z,17.26
2018-09-08T19:00:12.428Z,17.21
2018-09-08T19:02:40.739Z,17.19
2018-09-08T19:05:09.095Z,17.16
2018-09-08T19:07:37.431Z,17.14
2018-09-08T19:10:06.788Z,17.11
2018-09-08T19:12:36.118Z,17.08
2018-09-08T19:15:10.128Z,17.05
2018-09-08T19:17:38.497Z,17.02
2018-09-08T19:20:12.051Z,17.00
2018-09-08T19:22:46.928Z,16.97
2018-09-08T19:25:15.276Z,16.95
2018-09-08T19:27:43.651Z,16.92
2018-09-08T19:30:11.951Z,16.89
2018-09-08T19:32:40.328Z,16.88
2018-09-08T19:35:14.109Z,16.87
2018-09-08T19:37:42.440Z,16.86
2018-09-08T19:40:16.141Z,16.86
2018-09-08T19:42:44.435Z,16.88
2018-09-08T19:45:12.809Z,16.88
2018-09-08T19:47:46.427Z,16.89
2018-09-08T19:50:14.889Z,16.89
2018-09-08T19:52:48.357Z,16.87
2018-09-08T19:55:16.710Z,16.83
2018-09-08T19:57:50.286Z,16.81
2018-09-08T20:00:18.637Z,16.81
2018-09-08T20:02:46.930Z,16.80
2018-09-08T20:05:15.200Z,16.79
2018-09-08T20:07:43.498Z,16.78
2018-09-08T20:10:12.104Z,16.79
2018-09-08T20:12:40.404Z,16.76
2018-09-08T20:15:08.690Z,16.78
2018-09-08T20:17:37.034Z,16.77
2018-09-08T20:20:06.179Z,16.76
2018-09-08T20:22:34.478Z,16.72
2018-09-08T20:25:02.727Z,16.68
2018-09-08T20:27:31.012Z,16.64
2018-09-08T20:29:59.663Z,16.60
2018-09-08T20:32:27.928Z,16.55
2018-09-08T20:34:56.278Z,16.50
2018-09-08T20:37:24.649Z,16.48
2018-09-08T20:39:52.956Z,16.44
2018-09-08T20:42:21.260Z,16.41
2018-09-08T20:44:49.576Z,16.40
2018-09-08T20:47:18.177Z,16.35
2018-09-08T20:49:46.522Z,16.33
2018-09-08T20:52:14.860Z,16.30
2018-09-08T20:54:43.164Z,16.28
2018-09-08T20:57:11.530Z,16.26
2018-09-08T20:59:39.870Z,16.26
2018-09-08T21:02:08.334Z,16.26
2018-09-08T21:04:36.664Z,16.26
2018-09-08T21:07:05.307Z,16.24
2018-09-08T21:09:33.667Z,16.21
2018-09-08T21:12:01.993Z,16.19
2018-09-08T21:14:30.256Z,16.19
2018-09-08T21:16:58.588Z,16.17
2018-09-08T21:19:26.917Z,16.15
2018-09-08T21:21:55.406Z,16.13
2018-09-08T21:24:23.696Z,16.11
2018-09-08T21:26:52.019Z,16.11
2018-09-08T21:29:20.469Z,16.09
2018-09-08T21:31:48.830Z,16.09
2018-09-08T21:34:17.146Z,16.07
2018-09-08T21:36:45.432Z,16.04
2018-09-08T21:39:13.743Z,16.02
2018-09-08T21:41:42.087Z,16.01
2018-09-08T21:44:10.382Z,16.00
2018-09-08T21:46:38.672Z,15.99
2018-09-08T21:49:06.996Z,15.97
2018-09-08T21:51:35.341Z,15.95
2018-09-08T21:54:03.734Z,15.94
2018-09-08T21:56:32.097Z,15.92
2018-09-08T21:59:00.497Z,15.91
2018-09-08T22:01:28.998Z,15.89
2018-09-08T22:03:57.616Z,15.87
2018-09-08T22:06:26.635Z,15.85
2018-09-08T22:08:54.917Z,15.85
2018-09-08T22:11:23.213Z,15.84
2018-09-08T22:13:51.640Z,15.85
2018-09-08T22:16:19.963Z,15.84
2018-09-08T22:18:48.287Z,15.88
2018-09-08T22:21:16.806Z,15.90
2018-09-08T22:23:45.144Z,15.88
2018-09-08T22:26:13.455Z,15.88
2018-09-08T22:28:41.799Z,15.86
2018-09-08T22:31:10.171Z,15.81
2018-09-08T22:33:38.466Z,15.79
2018-09-08T22:36:06.777Z,15.78
2018-09-08T22:38:35.097Z,15.77
2018-09-08T22:41:03.411Z,15.77
2018-09-08T22:43:31.698Z,15.75
2018-09-08T22:46:00.008Z,15.75
2018-09-08T22:48:28.335Z,15.73
2018-09-08T22:50:56.688Z,15.70
2018-09-08T22:53:24.980Z,15.65
2018-09-08T22:55:56.039Z,15.62
2018-09-08T22:58:24.345Z,15.57
2018-09-08T23:00:52.886Z,15.53
2018-09-08T23:03:21.203Z,15.51
2018-09-08T23:05:49.524Z,15.47
2018-09-08T23:08:17.851Z,15.46
2018-09-08T23:10:46.163Z,15.45
2018-09-08T23:13:14.456Z,15.45
2018-09-08T23:15:42.749Z,15.45
2018-09-08T23:18:11.038Z,15.43
2018-09-08T23:20:39.448Z,15.41
2018-09-08T23:23:07.764Z,15.42
2018-09-08T23:25:36.071Z,15.45
2018-09-08T23:28:04.378Z,15.47
2018-09-08T23:30:32.995Z,15.48
2018-09-08T23:33:01.333Z,15.50
2018-09-08T23:35:30.659Z,15.52
2018-09-08T23:37:58.944Z,15.53
2018-09-08T23:40:27.291Z,15.52
2018-09-08T23:42:55.641Z,15.55
2018-09-08T23:45:24.054Z,15.56
2018-09-08T23:47:52.436Z,15.54
2018-09-08T23:50:20.830Z,15.54
2018-09-08T23:52:49.154Z,15.54
2018-09-08T23:55:17.447Z,15.55
2018-09-08T23:57:45.830Z,15.54
